Main page
METAR-TAF:

METAR-TAF

Airports :

Schwäbisch Hall, Germany

latitude: 49-07-06N, longitude: 9-47-02E, elevation: 398 m

Current weather observation

The report was made 33 minutes ago, at 17:50 UTC
Wind 5 kt from the South/Southeast
Temperature 4°C
Humidity 60%
Pressure 1016 hPa
Visibility 10 km or more
no clouds below 1500 m and no cumulonimbus

METAR: EDTY 281750Z 15005KT CAVOK 04/M03 Q1016

Time: 19:23 (18:23 UTC)

Forecast

The report was made 1 hour and 23 minutes ago, at 17:00 UTC
Forecast valid from 28 at 18 UTC to 29 at 03 UTC
Wind 4 kt from the South/Southeast
Visibility 10 km or more
Broken clouds at a height of 4500 ft
Becoming
from 28 at 20 UTC to 28 at 22 UTC
Wind 5 kt from the Southwest
Probability 30% :
Temporary
from 28 at 21 UTC to 28 at 23 UTC
Visibility: 4000 m
light snow

TAF: EDTY 281700Z 2818/2903 16004KT 9999 BKN045 BECMG 2820/2822 22005KT PROB30 TEMPO 2821/2823 4000 -SN

Weather observations and forecasts of more than 4000 airports (METAR and TAF reports).

The available stations are represented by yellow and red dots on the map.

Hover mouse over dot to see the name of the station.

Then click to see weather observations and forecasts.

To change the map : click on the green buttons with a black cross to zoom in, on the green button with a dash to zoom out, or on the green arrows for adjacent maps.


METAR-TAF: